createdAt,value
2019-04-30T00:01:17.398Z,7.30
2019-04-30T00:03:50.631Z,7.20
2019-04-30T00:06:22.492Z,7.20
2019-04-30T00:08:52.419Z,7.20
2019-04-30T00:11:22.075Z,7.20
2019-04-30T00:13:55.281Z,7.10
2019-04-30T00:16:25.159Z,7.00
2019-04-30T00:19:00.439Z,7.00
2019-04-30T00:21:26.383Z,7.00
2019-04-30T00:23:56.266Z,7.00
2019-04-30T00:26:27.630Z,7.00
2019-04-30T00:28:57.409Z,7.00
2019-04-30T00:31:27.538Z,7.00
2019-04-30T00:34:01.245Z,7.00
2019-04-30T00:36:34.102Z,7.00
2019-04-30T00:39:01.465Z,7.00
2019-04-30T00:41:32.745Z,6.90
2019-04-30T00:44:02.481Z,6.90
2019-04-30T00:46:32.507Z,6.90
2019-04-30T00:49:09.270Z,6.80
2019-04-30T00:51:35.339Z,6.80
2019-04-30T00:54:05.739Z,6.80
2019-04-30T00:56:36.886Z,6.80
2019-04-30T00:59:10.446Z,6.80
2019-04-30T01:02:06.157Z,6.70
2019-04-30T01:04:46.161Z,6.80
2019-04-30T01:07:17.144Z,6.70
2019-04-30T01:09:49.827Z,6.60
2019-04-30T01:12:25.506Z,6.60
2019-04-30T01:14:50.219Z,6.60
2019-04-30T01:17:19.905Z,6.60
2019-04-30T01:19:51.228Z,6.60
2019-04-30T01:22:28.212Z,6.50
2019-04-30T01:24:53.160Z,6.50
2019-04-30T01:27:23.164Z,6.40
2019-04-30T01:29:53.054Z,6.40
2019-04-30T01:32:22.718Z,6.40
2019-04-30T01:34:54.055Z,6.20
2019-04-30T01:37:28.423Z,6.30
2019-04-30T01:39:55.480Z,6.30
2019-04-30T01:42:25.230Z,6.30
2019-04-30T01:44:56.028Z,6.20
2019-04-30T01:47:27.807Z,6.20
2019-04-30T01:50:01.092Z,6.20
2019-04-30T01:52:49.375Z,6.20
2019-04-30T01:55:20.694Z,6.20
2019-04-30T01:58:08.672Z,6.10
2019-04-30T02:00:49.303Z,6.10
2019-04-30T02:03:19.391Z,6.00
2019-04-30T02:05:50.185Z,6.10
2019-04-30T02:08:20.942Z,6.10
2019-04-30T02:10:51.375Z,6.00
2019-04-30T02:13:21.357Z,6.00
2019-04-30T02:15:51.064Z,6.00
2019-04-30T02:18:20.868Z,6.00
2019-04-30T02:20:50.611Z,6.00
2019-04-30T02:23:20.346Z,6.00
2019-04-30T02:25:50.044Z,6.10
2019-04-30T02:28:19.708Z,6.00
2019-04-30T02:30:50.384Z,6.00
2019-04-30T02:33:20.899Z,5.90
2019-04-30T02:36:03.682Z,5.90
2019-04-30T02:38:34.018Z,5.90
2019-04-30T02:41:03.865Z,5.90
2019-04-30T02:43:35.042Z,5.90
2019-04-30T02:46:05.643Z,5.90
2019-04-30T02:48:39.659Z,5.80
2019-04-30T02:51:12.438Z,5.80
2019-04-30T02:54:12.349Z,5.80
2019-04-30T02:56:44.407Z,5.70
2019-04-30T02:59:14.162Z,5.70
2019-04-30T03:01:43.862Z,5.70
2019-04-30T03:04:13.759Z,5.60
2019-04-30T03:06:43.512Z,5.60
2019-04-30T03:09:13.242Z,5.60
2019-04-30T03:11:42.974Z,5.60
2019-04-30T03:14:12.639Z,5.50
2019-04-30T03:17:10.009Z,5.40
2019-04-30T03:19:50.220Z,5.40
2019-04-30T03:22:23.273Z,5.30
2019-04-30T03:24:52.949Z,5.30
2019-04-30T03:27:24.812Z,5.20
2019-04-30T03:29:53.994Z,5.20
2019-04-30T03:32:23.701Z,5.20
2019-04-30T03:34:53.499Z,5.20
2019-04-30T03:37:23.245Z,5.20
2019-04-30T03:39:53.015Z,5.30
2019-04-30T03:42:22.762Z,5.30
2019-04-30T03:44:52.459Z,5.30
2019-04-30T03:47:22.185Z,5.20
2019-04-30T03:49:52.101Z,5.20
2019-04-30T03:52:21.985Z,5.20
2019-04-30T03:54:52.675Z,5.20
2019-04-30T03:57:22.436Z,5.10
2019-04-30T03:59:52.171Z,5.10
2019-04-30T04:02:40.586Z,5.00
2019-04-30T04:05:16.363Z,5.10
2019-04-30T04:08:09.620Z,5.10
2019-04-30T04:10:52.705Z,5.20
2019-04-30T04:13:21.268Z,5.20
2019-04-30T04:15:51.037Z,5.20
2019-04-30T04:18:20.997Z,5.20
2019-04-30T04:21:06.618Z,5.30
2019-04-30T04:23:22.120Z,5.30
2019-04-30T04:25:51.812Z,5.30
2019-04-30T04:28:21.972Z,5.30
2019-04-30T04:30:51.724Z,5.30
2019-04-30T04:33:21.395Z,5.30
2019-04-30T04:35:51.082Z,5.40
2019-04-30T04:38:20.809Z,5.40
2019-04-30T04:40:50.527Z,5.50
2019-04-30T04:43:20.463Z,5.60
2019-04-30T04:45:50.325Z,5.60
2019-04-30T04:48:23.208Z,5.70
2019-04-30T04:50:51.523Z,5.80
2019-04-30T04:53:21.349Z,5.80
2019-04-30T04:55:51.048Z,5.80
2019-04-30T04:58:21.490Z,5.80
2019-04-30T05:00:51.692Z,5.90
2019-04-30T05:03:31.754Z,6.00
2019-04-30T05:06:02.617Z,6.10
2019-04-30T05:08:32.751Z,6.50
2019-04-30T05:11:02.450Z,7.20
2019-04-30T05:13:34.626Z,8.00
2019-04-30T05:16:03.958Z,8.60
2019-04-30T05:18:34.780Z,9.10
2019-04-30T05:21:04.548Z,9.40
2019-04-30T05:23:34.338Z,9.70
2019-04-30T05:26:04.136Z,9.90
2019-04-30T05:28:33.913Z,10.00
2019-04-30T05:31:03.650Z,10.10
2019-04-30T05:33:33.638Z,10.20
2019-04-30T05:36:03.331Z,10.10
2019-04-30T05:38:33.069Z,10.50
2019-04-30T05:41:02.783Z,10.60
2019-04-30T05:43:32.579Z,10.70
2019-04-30T05:46:02.417Z,10.80
2019-04-30T05:48:32.194Z,10.80
2019-04-30T05:51:02.025Z,11.20
2019-04-30T05:53:31.756Z,11.20
2019-04-30T05:56:03.239Z,11.20
2019-04-30T05:58:34.168Z,11.10
2019-04-30T06:01:03.984Z,11.00
2019-04-30T06:03:33.682Z,10.90
2019-04-30T06:06:03.572Z,11.20
2019-04-30T06:08:43.105Z,11.50
2019-04-30T06:11:19.776Z,11.50
2019-04-30T06:14:18.606Z,11.60
2019-04-30T06:17:05.292Z,11.70
2019-04-30T06:19:35.216Z,11.70
2019-04-30T06:22:08.090Z,11.90
2019-04-30T06:24:37.090Z,12.00
2019-04-30T06:27:10.560Z,12.10
2019-04-30T06:29:39.089Z,12.10
2019-04-30T06:32:09.448Z,12.50
2019-04-30T06:34:41.921Z,12.70
2019-04-30T06:37:11.665Z,12.60
2019-04-30T06:39:41.477Z,12.30
2019-04-30T06:42:12.979Z,12.20
2019-04-30T06:44:44.136Z,12.20
2019-04-30T06:47:14.280Z,12.10
2019-04-30T06:49:44.316Z,12.40
2019-04-30T06:52:20.532Z,12.70
2019-04-30T06:54:45.532Z,12.80
2019-04-30T06:57:15.251Z,12.90
2019-04-30T06:59:44.938Z,13.20
2019-04-30T07:02:14.640Z,13.30
2019-04-30T07:04:44.440Z,13.40
2019-04-30T07:07:14.472Z,13.50
2019-04-30T07:10:01.189Z,13.50
2019-04-30T07:12:38.874Z,13.40
2019-04-30T07:15:08.822Z,13.30
2019-04-30T07:17:40.572Z,13.30
2019-04-30T07:20:10.506Z,13.20
2019-04-30T07:22:48.901Z,13.30
2019-04-30T07:25:12.054Z,13.30
2019-04-30T07:27:42.073Z,13.30
2019-04-30T07:30:11.987Z,13.20
2019-04-30T07:32:41.687Z,13.10
2019-04-30T07:35:11.563Z,13.00
2019-04-30T07:37:41.290Z,12.90
2019-04-30T07:40:12.505Z,13.00
2019-04-30T07:42:44.902Z,13.20
2019-04-30T07:45:13.755Z,13.10
2019-04-30T07:47:43.417Z,13.20
2019-04-30T07:50:13.969Z,13.20
2019-04-30T07:53:01.085Z,13.20
2019-04-30T07:55:15.381Z,13.10
2019-04-30T07:57:45.067Z,13.20
2019-04-30T08:00:14.891Z,13.30
2019-04-30T08:02:52.694Z,13.30
2019-04-30T08:05:29.904Z,13.30
2019-04-30T08:08:16.221Z,13.30
2019-04-30T08:10:31.767Z,13.30
2019-04-30T08:13:10.180Z,13.30
2019-04-30T08:15:33.047Z,13.40
2019-04-30T08:18:05.837Z,13.40
2019-04-30T08:20:34.231Z,13.30
2019-04-30T08:23:15.616Z,13.30
2019-04-30T08:25:35.553Z,13.30
2019-04-30T08:28:05.496Z,13.30
2019-04-30T08:30:35.234Z,13.40
2019-04-30T08:33:05.066Z,13.50
2019-04-30T08:35:34.852Z,13.50
2019-04-30T08:38:04.848Z,13.60
2019-04-30T08:40:34.843Z,13.60
2019-04-30T08:43:04.870Z,13.70
2019-04-30T08:45:34.850Z,13.70
2019-04-30T08:48:05.024Z,13.80
2019-04-30T08:50:34.783Z,13.90
2019-04-30T08:53:04.825Z,14.00
2019-04-30T08:55:34.868Z,13.90
2019-04-30T08:58:09.859Z,13.90
2019-04-30T09:00:36.280Z,14.00
2019-04-30T09:03:06.253Z,14.10
2019-04-30T09:06:01.560Z,14.10
2019-04-30T09:08:31.376Z,14.20
2019-04-30T09:11:01.198Z,14.20
2019-04-30T09:13:30.993Z,14.20
2019-04-30T09:16:00.694Z,14.30
2019-04-30T09:18:31.996Z,14.30
2019-04-30T09:21:05.956Z,14.40
2019-04-30T09:23:43.909Z,14.40
2019-04-30T09:26:04.742Z,14.50
2019-04-30T09:28:34.478Z,14.50
2019-04-30T09:31:05.916Z,14.60
2019-04-30T09:33:35.800Z,14.70
2019-04-30T09:36:05.664Z,14.80
2019-04-30T09:38:35.371Z,14.90
2019-04-30T09:41:05.192Z,15.00
2019-04-30T09:43:34.890Z,15.00
2019-04-30T09:46:15.216Z,15.00
2019-04-30T09:48:38.492Z,15.10
2019-04-30T09:51:10.225Z,15.10
2019-04-30T09:53:39.966Z,15.00
2019-04-30T09:56:10.196Z,15.00
2019-04-30T09:58:40.045Z,15.10
2019-04-30T10:01:09.735Z,15.20
2019-04-30T10:03:40.138Z,15.20
2019-04-30T10:06:11.954Z,15.10
2019-04-30T10:08:48.365Z,15.30
2019-04-30T10:11:23.443Z,15.30
2019-04-30T10:13:52.944Z,15.30
2019-04-30T10:16:44.896Z,15.30
2019-04-30T10:19:15.035Z,15.40
2019-04-30T10:21:44.955Z,15.50
2019-04-30T10:24:15.783Z,15.60
2019-04-30T10:26:45.870Z,15.70
2019-04-30T10:29:17.316Z,15.70
2019-04-30T10:31:48.938Z,15.60
2019-04-30T10:34:19.032Z,15.60
2019-04-30T10:36:49.529Z,15.60
2019-04-30T10:39:21.705Z,15.60
2019-04-30T10:41:51.126Z,15.70
2019-04-30T10:44:21.995Z,15.70
2019-04-30T10:46:51.813Z,15.70
2019-04-30T10:49:21.592Z,15.80
2019-04-30T10:51:51.429Z,15.90
2019-04-30T10:54:26.041Z,16.00
2019-04-30T10:56:52.760Z,16.10
2019-04-30T10:59:22.635Z,16.10
2019-04-30T11:01:52.396Z,16.10
2019-04-30T11:04:22.305Z,16.10
2019-04-30T11:06:52.035Z,16.20
2019-04-30T11:09:22.207Z,16.30
2019-04-30T11:11:52.033Z,16.30
2019-04-30T11:14:21.884Z,16.30
2019-04-30T11:16:52.116Z,16.40
2019-04-30T11:19:24.548Z,16.50
2019-04-30T11:21:54.818Z,16.50
2019-04-30T11:24:35.889Z,16.50
2019-04-30T11:26:59.880Z,16.50
2019-04-30T11:29:30.790Z,16.60
2019-04-30T11:32:21.322Z,16.80
2019-04-30T11:34:51.313Z,16.80
2019-04-30T11:37:22.205Z,16.80
2019-04-30T11:39:51.986Z,16.70
2019-04-30T11:42:21.713Z,16.80
2019-04-30T11:44:51.422Z,16.90
2019-04-30T11:47:26.639Z,16.80
2019-04-30T11:49:56.439Z,16.90
2019-04-30T11:52:26.303Z,16.90
2019-04-30T11:54:56.203Z,17.00
2019-04-30T11:57:26.351Z,17.00
2019-04-30T11:59:56.213Z,17.00
2019-04-30T12:02:36.663Z,17.10
2019-04-30T12:05:07.557Z,17.10
2019-04-30T12:08:05.459Z,17.20
2019-04-30T12:10:43.302Z,17.30
2019-04-30T12:13:44.267Z,17.10
2019-04-30T12:16:14.074Z,17.00
2019-04-30T12:18:43.806Z,17.10
2019-04-30T12:21:13.508Z,17.10
2019-04-30T12:23:43.181Z,17.20
2019-04-30T12:26:12.831Z,17.30
2019-04-30T12:28:42.507Z,17.20
2019-04-30T12:31:12.226Z,17.10
2019-04-30T12:33:41.900Z,17.20
2019-04-30T12:36:11.729Z,17.30
2019-04-30T12:38:43.775Z,17.40
2019-04-30T12:41:13.560Z,17.50
2019-04-30T12:43:43.298Z,17.60
2019-04-30T12:46:13.120Z,17.70
2019-04-30T12:49:00.982Z,17.80
2019-04-30T12:51:52.871Z,17.90
2019-04-30T12:54:28.434Z,17.80
2019-04-30T12:57:19.233Z,17.80
2019-04-30T12:59:49.023Z,17.80
2019-04-30T13:02:19.192Z,17.80
2019-04-30T13:04:49.406Z,17.90
2019-04-30T13:07:20.642Z,17.90
2019-04-30T13:09:51.059Z,18.00
2019-04-30T13:12:21.652Z,18.10
2019-04-30T13:14:54.663Z,18.10
2019-04-30T13:17:23.164Z,18.10
2019-04-30T13:19:52.926Z,18.20
2019-04-30T13:22:22.604Z,18.30
2019-04-30T13:24:52.373Z,18.40
2019-04-30T13:27:22.657Z,18.40
2019-04-30T13:30:08.189Z,18.60
2019-04-30T13:32:44.346Z,18.60
2019-04-30T13:35:14.232Z,18.60
2019-04-30T13:37:50.068Z,18.40
2019-04-30T13:40:36.354Z,18.30
2019-04-30T13:43:06.673Z,18.30
2019-04-30T13:45:36.462Z,18.40
2019-04-30T13:48:10.288Z,18.60
2019-04-30T13:50:41.667Z,18.80
2019-04-30T13:53:11.402Z,18.90
2019-04-30T13:55:45.485Z,19.00
2019-04-30T13:58:12.480Z,19.10
2019-04-30T14:00:42.313Z,19.20
2019-04-30T14:03:34.221Z,19.20
2019-04-30T14:06:05.890Z,19.30
2019-04-30T14:08:40.512Z,19.30
2019-04-30T14:11:10.354Z,19.40
2019-04-30T14:13:41.082Z,19.40
2019-04-30T14:16:10.855Z,19.40
2019-04-30T14:18:40.971Z,19.10
2019-04-30T14:21:11.003Z,19.00
2019-04-30T14:23:40.847Z,19.10
2019-04-30T14:26:10.621Z,19.10
2019-04-30T14:28:40.483Z,19.00
2019-04-30T14:31:10.407Z,19.10
2019-04-30T14:33:40.222Z,19.20
2019-04-30T14:36:10.043Z,19.10
2019-04-30T14:38:40.683Z,19.00
2019-04-30T14:41:11.361Z,18.90
2019-04-30T14:43:51.009Z,18.90
2019-04-30T14:46:40.031Z,19.00
2019-04-30T14:49:34.823Z,19.10
2019-04-30T14:52:05.280Z,19.10
2019-04-30T14:54:52.945Z,19.10
2019-04-30T14:57:42.785Z,19.20
2019-04-30T15:00:40.919Z,19.30
2019-04-30T15:03:13.068Z,19.30
2019-04-30T15:05:48.644Z,19.20
2019-04-30T15:08:14.187Z,19.10
2019-04-30T15:10:44.133Z,19.10
2019-04-30T15:13:13.955Z,19.00
2019-04-30T15:15:43.989Z,18.90
2019-04-30T15:18:13.707Z,18.80
2019-04-30T15:20:43.520Z,18.60
2019-04-30T15:23:21.855Z,18.70
2019-04-30T15:25:51.813Z,18.90
2019-04-30T15:28:21.579Z,18.80
2019-04-30T15:30:51.965Z,18.70
2019-04-30T15:33:30.145Z,18.60
2019-04-30T15:35:59.998Z,18.60
2019-04-30T15:38:49.023Z,18.60
2019-04-30T15:41:19.476Z,18.60
2019-04-30T15:43:50.203Z,18.70
2019-04-30T15:46:20.133Z,18.70
2019-04-30T15:48:49.905Z,18.60
2019-04-30T15:51:20.193Z,18.60
2019-04-30T15:53:49.900Z,18.40
2019-04-30T15:56:19.855Z,18.40
2019-04-30T15:59:10.387Z,18.30
2019-04-30T16:01:40.843Z,18.30
2019-04-30T16:04:11.995Z,18.30
2019-04-30T16:06:41.871Z,18.20
2019-04-30T16:09:16.026Z,18.10
2019-04-30T16:11:55.568Z,18.00
2019-04-30T16:14:29.508Z,17.90
2019-04-30T16:17:03.934Z,17.80
2019-04-30T16:19:33.761Z,17.70
2019-04-30T16:22:03.770Z,17.60
2019-04-30T16:24:33.724Z,17.50
2019-04-30T16:27:03.521Z,17.50
2019-04-30T16:29:34.521Z,17.40
2019-04-30T16:32:04.564Z,17.30
2019-04-30T16:34:35.322Z,17.20
2019-04-30T16:37:05.292Z,17.20
2019-04-30T16:39:35.064Z,17.20
2019-04-30T16:42:05.049Z,17.20
2019-04-30T16:44:34.852Z,17.20
2019-04-30T16:47:13.769Z,17.10
2019-04-30T16:49:36.603Z,17.10
2019-04-30T16:52:06.498Z,17.00
2019-04-30T16:54:36.254Z,16.90
2019-04-30T16:57:06.789Z,16.80
2019-04-30T16:59:40.863Z,16.80
2019-04-30T17:02:11.764Z,16.80
2019-04-30T17:04:53.085Z,16.70
2019-04-30T17:07:42.137Z,16.70
2019-04-30T17:10:18.863Z,16.70
2019-04-30T17:13:01.795Z,16.70
2019-04-30T17:15:32.019Z,16.70
2019-04-30T17:18:01.735Z,16.60
2019-04-30T17:20:31.591Z,16.60
2019-04-30T17:23:01.254Z,16.50
2019-04-30T17:25:32.131Z,16.40
2019-04-30T17:28:01.989Z,16.40
2019-04-30T17:30:33.538Z,16.40
2019-04-30T17:33:03.381Z,16.30
2019-04-30T17:35:33.257Z,16.20
2019-04-30T17:38:03.186Z,16.20
2019-04-30T17:40:32.937Z,16.10
2019-04-30T17:43:04.775Z,16.10
2019-04-30T17:45:35.131Z,16.10
2019-04-30T17:48:05.091Z,16.10
2019-04-30T17:50:36.001Z,16.10
2019-04-30T17:53:05.987Z,16.10
2019-04-30T17:55:35.719Z,16.10
2019-04-30T17:58:05.562Z,16.00
2019-04-30T18:00:38.907Z,16.00
2019-04-30T18:03:08.803Z,15.90
2019-04-30T18:05:40.272Z,15.80
2019-04-30T18:08:10.271Z,15.80
2019-04-30T18:10:40.591Z,15.70
2019-04-30T18:13:11.372Z,15.60
2019-04-30T18:15:41.165Z,15.50
2019-04-30T18:18:19.078Z,15.40
2019-04-30T18:20:59.354Z,15.40
2019-04-30T18:24:11.332Z,15.30
2019-04-30T18:26:48.012Z,15.20
2019-04-30T18:29:18.853Z,15.10
2019-04-30T18:31:48.659Z,15.00
2019-04-30T18:34:19.440Z,14.90
2019-04-30T18:36:51.251Z,14.70
2019-04-30T18:39:20.945Z,14.60
2019-04-30T18:41:50.685Z,14.50
2019-04-30T18:44:20.383Z,14.40
2019-04-30T18:46:50.117Z,14.40
2019-04-30T18:49:20.580Z,14.30
2019-04-30T18:51:50.323Z,14.20
2019-04-30T18:54:20.982Z,14.20
2019-04-30T18:56:50.871Z,14.10
2019-04-30T18:59:20.578Z,14.10
2019-04-30T19:01:50.446Z,14.00
2019-04-30T19:04:20.271Z,14.00
2019-04-30T19:06:53.144Z,13.90
2019-04-30T19:09:54.297Z,13.80
2019-04-30T19:12:48.916Z,13.70
2019-04-30T19:16:18.563Z,13.60
2019-04-30T19:18:42.334Z,13.50
2019-04-30T19:21:12.128Z,13.50
2019-04-30T19:23:41.835Z,13.40
2019-04-30T19:26:11.543Z,13.40
2019-04-30T19:28:44.072Z,13.30
2019-04-30T19:31:14.698Z,13.40
2019-04-30T19:33:44.421Z,13.30
2019-04-30T19:36:14.356Z,13.20
2019-04-30T19:38:52.541Z,13.20
2019-04-30T19:41:22.561Z,13.20
2019-04-30T19:43:52.421Z,13.10
2019-04-30T19:46:22.232Z,13.10
2019-04-30T19:48:51.929Z,13.20
2019-04-30T19:51:41.091Z,13.20
2019-04-30T19:54:11.347Z,13.20
2019-04-30T19:56:41.352Z,13.20
2019-04-30T19:59:11.213Z,13.20
2019-04-30T20:01:41.049Z,13.10
2019-04-30T20:04:11.079Z,13.10
2019-04-30T20:06:40.843Z,13.00
2019-04-30T20:09:13.122Z,12.90
2019-04-30T20:11:43.280Z,12.90
2019-04-30T20:14:13.194Z,12.80
2019-04-30T20:16:42.907Z,12.80
2019-04-30T20:19:12.792Z,12.70
2019-04-30T20:21:48.673Z,12.70
2019-04-30T20:24:14.148Z,12.70
2019-04-30T20:26:43.841Z,12.70
2019-04-30T20:29:13.640Z,12.60
2019-04-30T20:31:43.559Z,12.60
2019-04-30T20:34:13.357Z,12.60
2019-04-30T20:36:43.090Z,12.60
2019-04-30T20:39:18.889Z,12.60
2019-04-30T20:41:53.049Z,12.60
2019-04-30T20:44:23.962Z,12.60
2019-04-30T20:46:53.701Z,12.60
2019-04-30T20:49:23.426Z,12.70
2019-04-30T20:51:55.897Z,12.80
2019-04-30T20:54:24.853Z,12.90
2019-04-30T20:56:54.598Z,13.00
2019-04-30T20:59:24.327Z,13.00
2019-04-30T21:01:54.235Z,13.10
2019-04-30T21:04:24.091Z,13.20
2019-04-30T21:06:53.797Z,13.20
2019-04-30T21:09:23.500Z,13.30
2019-04-30T21:11:53.300Z,13.30
2019-04-30T21:14:23.052Z,13.30
2019-04-30T21:16:52.950Z,13.40
2019-04-30T21:19:22.671Z,13.40
2019-04-30T21:21:52.404Z,13.50
2019-04-30T21:24:22.137Z,13.50
2019-04-30T21:26:51.825Z,13.50
2019-04-30T21:29:21.551Z,13.60
2019-04-30T21:32:10.344Z,13.60
2019-04-30T21:34:59.560Z,13.60
2019-04-30T21:37:29.395Z,13.60
2019-04-30T21:39:59.162Z,13.70
2019-04-30T21:42:28.939Z,13.70
2019-04-30T21:44:58.952Z,13.70
2019-04-30T21:47:28.738Z,13.80
2019-04-30T21:49:58.478Z,13.80
2019-04-30T21:52:28.454Z,13.70
2019-04-30T21:54:59.596Z,13.70
2019-04-30T21:57:31.203Z,13.80
2019-04-30T22:00:01.180Z,13.80
2019-04-30T22:02:33.000Z,13.70
2019-04-30T22:05:02.834Z,13.70
2019-04-30T22:07:32.760Z,13.70
2019-04-30T22:10:02.930Z,13.80
2019-04-30T22:12:32.841Z,13.70
2019-04-30T22:15:05.742Z,13.80
2019-04-30T22:17:42.370Z,13.70
2019-04-30T22:20:13.195Z,13.80
2019-04-30T22:22:43.087Z,13.80
2019-04-30T22:25:13.500Z,13.80
2019-04-30T22:27:43.418Z,13.80
2019-04-30T22:30:16.625Z,13.70
2019-04-30T22:32:51.017Z,13.70
2019-04-30T22:35:39.089Z,13.70
2019-04-30T22:38:15.783Z,13.80
2019-04-30T22:40:51.252Z,13.80
2019-04-30T22:43:24.475Z,13.80
2019-04-30T22:46:07.231Z,13.80
2019-04-30T22:48:39.373Z,13.80
2019-04-30T22:51:09.317Z,13.80
2019-04-30T22:53:39.391Z,13.80
2019-04-30T22:56:09.294Z,13.80
2019-04-30T22:58:41.893Z,13.80
2019-04-30T23:01:34.481Z,13.80
2019-04-30T23:04:07.732Z,13.90
2019-04-30T23:06:38.266Z,13.90
2019-04-30T23:09:11.139Z,13.90
2019-04-30T23:11:40.965Z,13.90
2019-04-30T23:14:10.850Z,13.90
2019-04-30T23:16:40.733Z,13.90
2019-04-30T23:19:10.577Z,13.90
2019-04-30T23:21:40.332Z,13.90
2019-04-30T23:24:10.229Z,13.90
2019-04-30T23:26:39.982Z,14.00
2019-04-30T23:29:09.959Z,14.00
2019-04-30T23:31:39.670Z,14.00
2019-04-30T23:34:17.742Z,14.00
2019-04-30T23:36:41.457Z,14.00
2019-04-30T23:39:13.520Z,14.00
2019-04-30T23:41:43.427Z,13.90
2019-04-30T23:44:13.241Z,13.80
2019-04-30T23:46:43.072Z,13.70
2019-04-30T23:49:12.844Z,13.60
2019-04-30T23:51:42.649Z,13.60
2019-04-30T23:54:12.387Z,13.50
2019-04-30T23:56:42.347Z,13.50
2019-04-30T23:59:12.257Z,13.40
